Grants Pass, Oregon
Current Conditions -  °F | °C
As of 6:05 PM on Saturday 20 Dec 2014 (Local Time) from KSXT Reporting Station
Light Rain Light Rain  
Wind Chill: 39°   Ceiling: 100
Heat Index: 46°   Visibility: 0.25mi
Dew Point: 46°   Wind: 17mph
Humidity: 100%   Direction: 190°S
Pressure: 29.94"   Gusts: 26mph
Location:  42.44°N, 123.32°W
Report Text: KSXT 210205Z AUTO 19015G23KT 1/4SM -RA FG VV001 08/08 A2994 RMK AO2 RAB0157 P0001 T00780078
Loading
Personal Weather Stations






























Interactive Weather Map New forecast layout! Learn more

10-Day Weather Forecast

Advertisements
Track Severe Weather on mobile